Time;durP1;ratioP1;P1;durP2;ratioP2;P2;SDS_P1;SDS_P2;PMS_P1;PMS_P2;Temp;Humidity;BMP_temperature;BMP_pressure;BME280_temperature;BME280_humidity;BME280_pressure;Samples;Min_cycle;Max_cycle;Signal;HPM_P1;HPM_P2
2021/03/06 00:00:59;;;;;;;9.30;3.50;;;;;;;-2.44;63.65;102594.39;123330;1105;65496;-76
2021/03/06 00:03:27;;;;;;;6.70;3.57;;;;;;;-2.43;64.43;102585.72;123273;1105;90691;-76
2021/03/06 00:05:56;;;;;;;7.55;3.75;;;;;;;-2.43;64.62;102596.11;123404;1105;65718;-77
2021/03/06 00:08:24;;;;;;;7.93;4.10;;;;;;;-2.42;64.06;102592.60;123388;1105;64965;-77
2021/03/06 00:10:56;;;;;;;11.05;4.25;;;;;;;-2.44;64.24;102595.27;123437;1105;64915;-77
2021/03/06 00:13:24;;;;;;;9.47;4.10;;;;;;;-2.43;64.99;102590.91;123403;1105;64867;-78
2021/03/06 00:15:52;;;;;;;7.67;3.80;;;;;;;-2.44;64.76;102589.19;123382;1105;65039;-78
2021/03/06 00:18:18;;;;;;;9.50;4.30;;;;;;;-2.42;64.52;102597.80;123345;1105;64940;-76
2021/03/06 00:20:44;;;;;;;9.67;3.37;;;;;;;-2.43;64.79;102598.71;123385;1103;64886;-76
2021/03/06 00:23:13;;;;;;;6.55;3.50;;;;;;;-2.43;64.43;102598.71;124064;1105;64866;-76
2021/03/06 00:25:39;;;;;;;6.45;2.85;;;;;;;-2.46;65.17;102597.91;123397;1105;65011;-76
2021/03/06 00:28:06;;;;;;;6.50;3.07;;;;;;;-2.47;64.41;102598.78;123415;1105;64927;-78
2021/03/06 00:30:32;;;;;;;5.97;3.10;;;;;;;-2.49;65.46;102597.13;123570;1102;64915;-76
2021/03/06 00:33:00;;;;;;;6.50;3.43;;;;;;;-2.49;65.20;102607.52;123384;1102;64895;-77
2021/03/06 00:35:27;;;;;;;5.17;3.07;;;;;;;-2.51;66.07;102607.59;123362;1105;64911;-78
2021/03/06 00:37:53;;;;;;;5.10;2.77;;;;;;;-2.51;65.11;102604.98;123428;1105;64965;-77
2021/03/06 00:40:19;;;;;;;5.90;2.87;;;;;;;-2.53;66.35;102606.78;123337;1105;65049;-77
2021/03/06 00:42:46;;;;;;;6.03;2.70;;;;;;;-2.53;65.67;102601.58;123424;1102;64911;-78
2021/03/06 00:45:12;;;;;;;8.50;3.27;;;;;;;-2.55;65.51;102605.97;123392;1105;65065;-79
2021/03/06 00:47:38;;;;;;;6.80;2.70;;;;;;;-2.54;65.83;102605.06;123404;1106;64917;-76
2021/03/06 00:50:09;;;;;;;7.03;3.50;;;;;;;-2.57;65.98;102599.96;123604;1102;64910;-76
2021/03/06 00:52:35;;;;;;;8.77;3.10;;;;;;;-2.58;65.66;102593.05;123328;1103;64864;-76
2021/03/06 00:55:01;;;;;;;5.83;3.33;;;;;;;-2.58;66.74;102603.44;123354;1105;64924;-76
2021/03/06 00:57:27;;;;;;;7.40;3.07;;;;;;;-2.57;66.32;102605.16;123386;1105;64987;-79
2021/03/06 00:59:54;;;;;;;5.87;3.20;;;;;;;-2.57;65.90;102605.16;123342;1102;64910;-76
2021/03/06 01:02:20;;;;;;;6.60;3.23;;;;;;;-2.58;65.72;102603.44;123331;1103;64872;-78
2021/03/06 01:04:46;;;;;;;4.90;3.37;;;;;;;-2.57;65.73;102599.09;123496;1102;64940;-76
2021/03/06 01:07:13;;;;;;;8.20;3.07;;;;;;;-2.60;66.43;102584.44;123422;1105;65177;-77
2021/03/06 01:09:39;;;;;;;4.67;3.07;;;;;;;-2.61;66.04;102582.75;123395;1105;64873;-77
2021/03/06 01:12:05;;;;;;;8.10;3.63;;;;;;;-2.62;66.88;102582.79;123406;1102;64800;-79
2021/03/06 01:14:31;;;;;;;5.20;2.37;;;;;;;-2.63;66.88;102584.54;124131;1105;64959;-76
2021/03/06 01:16:57;;;;;;;3.30;2.00;;;;;;;-2.65;66.52;102581.13;123397;1105;64998;-78
2021/03/06 01:19:25;;;;;;;4.30;2.40;;;;;;;-2.65;66.61;102575.94;123562;1102;65363;-77
2021/03/06 01:21:52;;;;;;;7.47;2.40;;;;;;;-2.67;66.19;102588.12;123434;1102;64911;-78
2021/03/06 01:24:33;;;;;;;5.23;2.73;;;;;;;-2.68;66.79;102576.01;123429;1105;65019;-79
2021/03/06 01:27:00;;;;;;;4.17;2.47;;;;;;;-2.72;66.48;102580.45;123349;1105;66031;-76
2021/03/06 01:29:26;;;;;;;7.33;3.27;;;;;;;-2.71;66.39;102578.70;123519;1105;65004;-79
2021/03/06 01:31:52;;;;;;;4.20;2.40;;;;;;;-2.73;66.73;102577.89;123405;1105;64779;-75
2021/03/06 01:34:18;;;;;;;6.23;2.30;;;;;;;-2.74;67.22;102582.25;123437;1102;64910;-76
2021/03/06 01:36:44;;;;;;;4.77;2.10;;;;;;;-2.76;66.93;102578.84;123329;1104;64911;-76
2021/03/06 01:39:10;;;;;;;5.50;2.23;;;;;;;-2.76;67.43;102576.23;123402;1105;64973;-77
2021/03/06 01:41:36;;;;;;;4.67;2.67;;;;;;;-2.77;67.16;102569.33;123481;1102;64917;-75
2021/03/06 01:44:03;;;;;;;5.13;2.33;;;;;;;-2.77;67.48;102566.73;123367;1102;65240;-76
2021/03/06 01:46:29;;;;;;;4.20;2.63;;;;;;;-2.79;67.44;102563.32;124031;1105;66117;-77
2021/03/06 01:48:56;;;;;;;4.75;2.30;;;;;;;-2.77;68.47;102565.88;123620;1104;64913;-78
2021/03/06 01:51:22;;;;;;;7.13;2.80;;;;;;;-2.77;68.03;102560.69;123466;1105;64940;-77
2021/03/06 01:53:48;;;;;;;10.23;3.20;;;;;;;-2.76;67.42;102567.58;123420;1105;64928;-77
2021/03/06 01:56:16;;;;;;;4.07;2.00;;;;;;;-2.78;67.12;102566.80;123991;1105;64863;-76
2021/03/06 01:58:42;;;;;;;5.73;2.50;;;;;;;-2.80;67.94;102566.83;123762;1103;64930;-78
2021/03/06 02:01:09;;;;;;;4.67;2.30;;;;;;;-2.82;67.50;102567.77;123393;1105;63726;-76
2021/03/06 02:03:36;;;;;;;6.10;2.43;;;;;;;-2.82;68.00;102565.17;124346;1102;64806;-75
2021/03/06 02:06:02;;;;;;;5.70;2.47;;;;;;;-2.84;68.39;102560.02;123414;1102;64911;-75
2021/03/06 02:08:28;;;;;;;8.03;2.40;;;;;;;-2.83;68.72;102555.66;123362;1103;65271;-77
2021/03/06 02:10:55;;;;;;;6.27;2.50;;;;;;;-2.85;68.66;102563.48;123375;1105;64985;-78
2021/03/06 02:13:43;;;;;;;3.10;1.83;;;;;;;-2.85;68.28;102554.85;123506;1105;64981;-79
2021/03/06 02:16:33;;;;;;;5.47;2.47;;;;;;;-2.87;68.64;102554.89;123547;1102;64931;-78
2021/03/06 02:19:41;;;;;;;3.97;2.63;;;;;;;-2.87;68.74;102549.69;123676;1103;64873;-76
2021/03/06 02:22:29;;;;;;;5.50;2.30;;;;;;;-2.87;69.21;102555.77;123701;1103;64911;-75
2021/03/06 02:25:40;;;;;;;6.97;2.47;;;;;;;-2.87;68.87;102558.36;123384;1103;65202;-76
2021/03/06 02:28:23;;;;;;;3.23;2.03;;;;;;;-2.88;68.49;102559.23;123430;1105;64994;-77
2021/03/06 02:30:52;;;;;;;6.67;2.60;;;;;;;-2.91;68.75;102554.14;123612;1105;64688;-77
2021/03/06 02:33:24;;;;;;;5.60;2.43;;;;;;;-2.92;69.26;102556.77;123878;1105;64876;-77
2021/03/06 02:35:54;;;;;;;3.77;2.23;;;;;;;-2.95;69.37;102552.52;123530;1102;64915;-75
2021/03/06 02:38:26;;;;;;;7.60;2.53;;;;;;;-2.97;69.47;102554.30;123644;1105;65110;-76
2021/03/06 02:40:52;;;;;;;9.63;1.90;;;;;;;-3.00;69.99;102543.98;123506;1105;64971;-76
2021/03/06 02:43:20;;;;;;;2.93;1.87;;;;;;;-3.02;69.89;102545.77;123444;1102;63439;-76
2021/03/06 02:45:46;;;;;;;5.00;1.97;;;;;;;-3.05;70.35;102548.47;123594;1105;64914;-76
2021/03/06 02:48:13;;;;;;;3.77;2.47;;;;;;;-3.07;70.78;102547.66;123384;1105;65030;-76
2021/03/06 02:50:39;;;;;;;4.70;2.00;;;;;;;-3.07;71.17;102542.46;123726;1102;64864;-78
2021/03/06 02:53:05;;;;;;;6.15;2.00;;;;;;;-3.07;71.07;102547.66;123420;1102;65075;-79
2021/03/06 02:55:39;;;;;;;4.20;1.70;;;;;;;-3.09;71.47;102545.09;123470;1103;64992;-77
2021/03/06 02:58:31;;;;;;;6.03;2.50;;;;;;;-3.09;71.25;102552.88;123465;1105;64973;-77
2021/03/06 03:01:04;;;;;;;12.23;2.67;;;;;;;-3.10;71.91;102543.40;123367;1105;64959;-77
2021/03/06 03:03:52;;;;;;;8.77;2.67;;;;;;;-3.10;72.36;102543.40;126880;1102;63897;-76
2021/03/06 03:06:34;;;;;;;5.07;2.10;;;;;;;-3.10;71.74;102546.00;123477;1103;65068;-75
2021/03/06 03:09:07;;;;;;;10.70;1.97;;;;;;;-3.10;72.90;102543.40;123379;1103;64860;-78
2021/03/06 03:11:56;;;;;;;3.83;2.33;;;;;;;-3.09;72.97;102539.89;123770;1102;64924;-76
2021/03/06 03:14:32;;;;;;;4.70;2.57;;;;;;;-3.10;72.81;102543.40;123384;1105;64988;-78
2021/03/06 03:17:02;;;;;;;4.23;2.40;;;;;;;-3.10;73.29;102543.40;123501;1105;65001;-76
2021/03/06 03:19:32;;;;;;;4.63;2.03;;;;;;;-3.09;73.75;102549.44;123361;1103;65045;-78
2021/03/06 03:22:04;;;;;;;3.55;1.70;;;;;;;-3.07;74.10;102539.86;123546;1106;65078;-78
2021/03/06 03:24:35;;;;;;;4.53;2.30;;;;;;;-3.05;74.62;102551.06;123425;1105;64914;-78
2021/03/06 03:27:08;;;;;;;3.77;2.07;;;;;;;-3.01;75.06;102541.45;123496;1102;64870;-76
2021/03/06 03:29:39;;;;;;;6.27;2.60;;;;;;;-3.00;74.43;102548.34;123794;1105;65027;-76
2021/03/06 03:32:07;;;;;;;6.37;2.27;;;;;;;-3.00;73.64;102546.58;123338;1106;64931;-77
2021/03/06 03:34:36;;;;;;;6.17;2.37;;;;;;;-3.00;74.53;102554.38;123578;1102;64879;-76
2021/03/06 03:37:04;;;;;;;5.50;2.50;;;;;;;-3.00;74.53;102546.58;123385;1105;64930;-77
2021/03/06 03:39:31;;;;;;;4.45;2.75;;;;;;;-3.00;74.46;102549.17;123609;1105;64935;-76
2021/03/06 03:42:00;;;;;;;5.23;2.40;;;;;;;-3.00;74.98;102549.17;123393;1105;64872;-76
2021/03/06 03:44:26;;;;;;;3.40;2.00;;;;;;;-3.00;74.82;102554.38;123641;1105;65687;-75
2021/03/06 03:46:55;;;;;;;4.90;2.10;;;;;;;-2.99;75.95;102547.45;123354;1105;64934;-76
2021/03/06 03:49:22;;;;;;;6.13;2.83;;;;;;;-2.98;75.34;102549.98;123437;1105;65374;-76
2021/03/06 03:51:49;;;;;;;4.87;2.23;;;;;;;-2.98;75.28;102546.55;123444;1102;65023;-75
2021/03/06 03:54:16;;;;;;;5.67;2.40;;;;;;;-2.98;75.23;102546.55;123560;1105;65499;-75
2021/03/06 03:56:43;;;;;;;13.97;2.63;;;;;;;-2.99;74.85;102553.50;123387;1102;65716;-75
2021/03/06 03:59:09;;;;;;;8.37;2.73;;;;;;;-2.99;75.91;102550.90;123414;1105;64905;-76
2021/03/06 04:01:43;;;;;;;4.25;2.60;;;;;;;-3.00;75.46;102546.58;123509;1103;64883;-76
2021/03/06 04:04:27;;;;;;;11.60;2.58;;;;;;;-2.99;76.73;102556.09;123495;1105;65364;-77
2021/03/06 04:06:54;;;;;;;3.83;1.93;;;;;;;-3.00;75.95;102554.38;123447;1105;65881;-75
2021/03/06 04:09:21;;;;;;;4.00;2.75;;;;;;;-3.00;76.55;102567.35;123377;1105;65032;-76
2021/03/06 04:11:48;;;;;;;7.87;2.67;;;;;;;-3.00;76.05;102559.56;124012;1105;64952;-76
2021/03/06 04:14:14;;;;;;;4.87;2.57;;;;;;;-2.99;76.11;102561.28;123376;1103;65709;-77
2021/03/06 04:16:41;;;;;;;9.63;3.10;;;;;;;-2.98;76.61;102556.94;123543;1104;64943;-77
2021/03/06 04:19:07;;;;;;;6.37;2.10;;;;;;;-2.93;77.12;102549.89;123531;1102;64914;-77
2021/03/06 04:21:34;;;;;;;4.63;2.03;;;;;;;-2.93;76.84;102558.52;123609;1105;64866;-76
2021/03/06 04:24:00;;;;;;;11.77;2.60;;;;;;;-2.90;77.25;102554.98;123386;1102;64991;-77
2021/03/06 04:26:45;;;;;;;6.65;3.45;;;;;;;-2.89;77.60;102557.55;123321;1103;64787;-76
2021/03/06 04:29:11;;;;;;;6.13;2.57;;;;;;;-2.87;78.37;102560.95;123437;1102;64947;-77
2021/03/06 04:31:37;;;;;;;5.70;1.70;;;;;;;-2.85;78.55;102557.45;123708;1105;64995;-78
2021/03/06 04:34:03;;;;;;;4.90;2.40;;;;;;;-2.84;78.37;102556.57;123575;1103;65010;-77
2021/03/06 04:36:30;;;;;;;7.30;2.10;;;;;;;-2.83;78.37;102566.05;123713;1105;64934;-78
2021/03/06 04:38:56;;;;;;;5.70;3.00;;;;;;;-2.81;78.26;102559.07;123519;1105;65004;-75
2021/03/06 04:41:23;;;;;;;4.00;2.00;;;;;;;-2.80;78.97;102560.79;123441;1105;64860;-77
2021/03/06 04:43:49;;;;;;;7.80;2.30;;;;;;;-2.76;78.38;102562.37;123466;1102;65713;-78
2021/03/06 04:46:15;;;;;;;7.87;2.27;;;;;;;-2.77;78.70;102561.53;123442;1105;64902;-78
2021/03/06 04:48:41;;;;;;;10.93;3.10;;;;;;;-2.77;78.53;102571.92;123377;1105;65713;-75
2021/03/06 04:51:08;;;;;;;4.20;2.43;;;;;;;-2.78;78.33;102571.98;123377;1102;64931;-76
2021/03/06 04:53:34;;;;;;;6.72;2.62;;;;;;;-2.79;78.38;102572.87;123444;1102;64936;-75
2021/03/06 04:56:01;;;;;;;4.57;2.43;;;;;;;-2.81;78.63;102582.45;123416;1102;64907;-79
2021/03/06 04:58:27;;;;;;;5.37;2.80;;;;;;;-2.82;79.50;102583.36;123591;1105;64956;-76
2021/03/06 05:00:53;;;;;;;6.27;2.30;;;;;;;-2.83;78.89;102586.83;123379;1105;64934;-76
2021/03/06 05:03:20;;;;;;;8.30;2.20;;;;;;;-2.85;78.76;102576.47;123508;1102;64968;-75
2021/03/06 05:05:46;;;;;;;4.67;2.10;;;;;;;-2.88;77.66;102574.81;123417;1105;63927;-75
2021/03/06 05:08:12;;;;;;;4.57;2.57;;;;;;;-2.91;78.39;102569.72;123290;1102;65160;-76
2021/03/06 05:10:38;;;;;;;4.80;2.23;;;;;;;-2.94;78.19;102564.59;123745;1105;64933;-76
2021/03/06 05:13:04;;;;;;;8.97;2.40;;;;;;;-2.97;78.96;102567.28;123345;1105;64998;-79
2021/03/06 05:15:30;;;;;;;11.10;2.50;;;;;;;-2.99;78.40;102566.48;123514;1106;64961;-77
2021/03/06 05:17:58;;;;;;;6.87;2.50;;;;;;;-3.01;78.89;102565.66;123488;1102;64869;-78
2021/03/06 05:20:24;;;;;;;3.87;2.37;;;;;;;-3.02;79.64;102565.70;123771;1105;64002;-77
2021/03/06 05:22:51;;;;;;;6.17;2.60;;;;;;;-3.02;80.58;102563.95;123355;1105;65065;-76
2021/03/06 05:25:17;;;;;;;3.37;2.20;;;;;;;-3.02;80.65;102561.34;123441;1105;66103;-78
2021/03/06 05:27:43;;;;;;;6.40;3.13;;;;;;;-3.01;80.44;102568.27;123422;1105;64921;-77
2021/03/06 05:30:09;;;;;;;3.30;1.97;;;;;;;-3.02;80.58;102574.33;123383;1102;64985;-77
2021/03/06 05:32:36;;;;;;;6.70;2.40;;;;;;;-3.03;80.36;102575.23;123444;1105;65026;-78
2021/03/06 05:35:03;;;;;;;3.53;2.20;;;;;;;-3.01;80.38;102576.05;123555;1105;64912;-78
2021/03/06 05:37:30;;;;;;;5.70;2.20;;;;;;;-3.00;81.18;102582.93;123528;1105;64915;-78
2021/03/06 05:39:56;;;;;;;4.87;2.53;;;;;;;-2.98;81.58;102580.30;123445;1103;65041;-77
2021/03/06 05:42:23;;;;;;;7.25;2.90;;;;;;;-2.96;81.04;102581.95;123418;1105;65005;-77
2021/03/06 05:44:51;;;;;;;3.90;1.90;;;;;;;-2.95;80.49;102583.68;123540;1103;64943;-78
2021/03/06 05:47:18;;;;;;;4.30;1.70;;;;;;;-2.94;81.06;102574.98;123526;1105;64991;-76
2021/03/06 05:49:45;;;;;;;9.00;1.90;;;;;;;-2.91;81.11;102587.02;123467;1105;64911;-78
2021/03/06 05:52:17;;;;;;;8.23;2.27;;;;;;;-2.88;81.06;102589.55;123414;1102;65721;-76
2021/03/06 05:54:48;;;;;;;7.87;2.33;;;;;;;-2.84;80.90;102583.39;123610;1105;64992;-78
2021/03/06 05:57:17;;;;;;;5.70;1.93;;;;;;;-2.77;80.76;102579.72;123499;1105;65017;-78
2021/03/06 05:59:45;;;;;;;5.13;2.27;;;;;;;-2.71;81.18;102576.11;123678;1105;64934;-76
2021/03/06 06:02:15;;;;;;;4.10;1.80;;;;;;;-2.64;81.27;102567.23;123807;1106;64912;-79
2021/03/06 06:04:43;;;;;;;3.07;1.80;;;;;;;-2.62;81.35;102573.24;123856;1105;64917;-79
2021/03/06 06:07:10;;;;;;;3.10;2.00;;;;;;;-2.58;80.67;102577.45;123469;1105;65653;-74
2021/03/06 06:09:37;;;;;;;4.80;1.70;;;;;;;-2.55;81.45;102568.72;123789;1105;64899;-76
2021/03/06 06:12:06;;;;;;;8.35;2.30;;;;;;;-2.49;80.99;102566.82;123424;1106;65718;-75
2021/03/06 06:14:40;;;;;;;4.83;1.50;;;;;;;-2.44;81.40;102571.00;123430;1105;64937;-77
2021/03/06 06:17:08;;;;;;;7.80;3.30;;;;;;;-2.38;80.84;102560.43;123501;1105;64905;-78
2021/03/06 06:19:37;;;;;;;5.40;2.30;;;;;;;-2.34;81.58;102562.92;123476;1105;66111;-78
2021/03/06 06:22:16;;;;;;;8.57;1.87;;;;;;;-2.25;81.51;102569.59;123468;1105;64969;-77
2021/03/06 06:24:47;;;;;;;3.40;0.93;;;;;;;-2.20;80.55;102566.84;123596;1105;64997;-80
2021/03/06 06:27:28;;;;;;;6.53;1.87;;;;;;;-2.14;81.06;102564.91;123418;1103;64930;-77
2021/03/06 06:29:56;;;;;;;7.27;1.97;;;;;;;-2.08;79.57;102576.88;123724;1105;64882;-77
2021/03/06 06:32:24;;;;;;;7.67;2.00;;;;;;;-2.00;79.83;102581.83;124137;1105;64860;-78
2021/03/06 06:35:07;;;;;;;1.83;0.93;;;;;;;-1.94;79.23;102579.05;123413;1105;65144;-74
2021/03/06 06:37:34;;;;;;;4.03;2.00;;;;;;;-1.82;79.71;102586.47;123472;1105;64998;-76
2021/03/06 06:40:15;;;;;;;9.10;1.70;;;;;;;-1.73;78.48;102588.77;123319;1105;64936;-76
2021/03/06 06:42:41;;;;;;;5.43;1.90;;;;;;;-1.65;78.02;102585.94;123338;1102;65556;-75
2021/03/06 06:45:08;;;;;;;6.30;1.90;;;;;;;-1.60;79.30;102589.23;123386;1102;65042;-76
2021/03/06 06:47:37;;;;;;;5.53;1.70;;;;;;;-1.56;78.16;102588.23;123619;1103;64988;-76
2021/03/06 06:50:05;;;;;;;8.87;1.70;;;;;;;-1.55;78.17;102576.94;123525;1105;65033;-74
2021/03/06 06:52:37;;;;;;;3.07;1.50;;;;;;;-1.53;78.59;102584.67;123580;1102;64917;-79
2021/03/06 06:55:05;;;;;;;6.17;1.80;;;;;;;-1.51;78.18;102590.67;123421;1105;64933;-76
2021/03/06 06:57:31;;;;;;;5.33;1.87;;;;;;;-1.48;77.84;102582.79;123498;1105;65006;-78
2021/03/06 07:00:06;;;;;;;7.53;2.03;;;;;;;-1.42;78.39;102582.59;123434;1105;65074;-77
2021/03/06 07:02:33;;;;;;;4.80;1.83;;;;;;;-1.36;77.55;102582.39;123508;1102;64936;-75
2021/03/06 07:05:03;;;;;;;3.17;1.57;;;;;;;-1.30;77.06;102586.52;123407;1105;64995;-75
2021/03/06 07:07:42;;;;;;;5.47;1.90;;;;;;;-1.21;77.05;102593.16;123477;1105;64946;-74
2021/03/06 07:10:12;;;;;;;4.77;1.67;;;;;;;-1.12;77.05;102593.72;123494;1105;64929;-78
2021/03/06 07:12:40;;;;;;;2.87;1.20;;;;;;;-1.00;76.61;102602.84;123552;1105;65065;-76
2021/03/06 07:15:21;;;;;;;3.55;1.40;;;;;;;-0.84;76.24;102601.42;124026;1102;65284;-78
2021/03/06 07:17:50;;;;;;;3.33;1.40;;;;;;;-0.70;76.34;102607.89;123473;1105;64909;-77
2021/03/06 07:20:19;;;;;;;8.30;1.97;;;;;;;-0.61;75.08;102602.36;123593;1106;65071;-76
2021/03/06 07:22:46;;;;;;;5.47;2.10;;;;;;;-0.51;75.02;102610.68;123467;1103;64988;-80
2021/03/06 07:25:13;;;;;;;5.93;1.70;;;;;;;-0.41;75.97;102615.50;123370;1103;64873;-78
2021/03/06 07:27:40;;;;;;;3.53;1.80;;;;;;;-0.27;75.44;102619.38;123385;1105;64994;-76
2021/03/06 07:30:09;;;;;;;14.53;1.97;;;;;;;-0.15;74.80;102611.10;123436;1102;64863;-78
2021/03/06 07:32:41;;;;;;;3.07;1.70;;;;;;;-0.03;75.40;102605.39;123468;1102;65042;-77
2021/03/06 07:35:10;;;;;;;6.30;1.73;;;;;;;0.13;74.78;102615.25;124104;1105;64918;-80
2021/03/06 07:37:37;;;;;;;5.63;2.07;;;;;;;0.25;74.72;102619.97;123465;1105;63986;-78
2021/03/06 07:40:07;;;;;;;6.27;1.83;;;;;;;0.37;73.77;102614.27;123658;1102;64934;-78
2021/03/06 07:42:44;;;;;;;3.15;1.30;;;;;;;0.46;73.79;102625.25;123626;1102;64933;-76
2021/03/06 07:45:14;;;;;;;7.07;1.73;;;;;;;0.55;73.86;102632.70;123676;1105;64899;-80
2021/03/06 07:47:43;;;;;;;5.33;2.03;;;;;;;0.64;73.08;102634.97;123864;1104;64898;-78
2021/03/06 07:50:18;;;;;;;3.07;1.30;;;;;;;0.70;72.54;102631.23;123900;1105;64997;-77
2021/03/06 07:52:44;;;;;;;3.05;1.40;;;;;;;0.74;72.62;102638.88;123719;1102;64910;-76
2021/03/06 07:55:12;;;;;;;2.80;1.40;;;;;;;0.79;72.46;102639.55;123565;1105;64948;-76
2021/03/06 07:58:02;;;;;;;2.90;1.33;;;;;;;0.84;73.07;102643.73;123874;1106;64969;-79
2021/03/06 08:00:53;;;;;;;5.73;2.00;;;;;;;0.91;72.69;102639.95;123825;1105;64991;-79
2021/03/06 08:03:27;;;;;;;3.37;0.90;;;;;;;0.99;71.94;102637.86;123620;1105;65048;-77
2021/03/06 08:05:59;;;;;;;4.57;1.70;;;;;;;1.09;71.98;102638.34;123691;1103;64930;-79
2021/03/06 08:08:35;;;;;;;3.70;1.60;;;;;;;1.18;72.27;102636.16;123845;1105;64931;-79
2021/03/06 08:11:15;;;;;;;4.37;1.33;;;;;;;1.30;71.84;102636.56;123560;1102;64925;-78
2021/03/06 08:13:47;;;;;;;5.53;1.47;;;;;;;1.39;71.42;102625.70;123513;1105;64857;-78
2021/03/06 08:16:20;;;;;;;9.43;1.87;;;;;;;1.54;71.30;102630.23;124033;1101;65068;-78
2021/03/06 08:18:47;;;;;;;4.73;1.30;;;;;;;1.73;70.64;102629.41;123525;1102;65697;-78
2021/03/06 08:21:37;;;;;;;9.23;1.53;;;;;;;1.86;70.13;102634.94;123524;1105;64976;-78
2021/03/06 08:24:13;;;;;;;3.73;0.90;;;;;;;1.94;70.37;102633.66;123635;1105;64803;-79
2021/03/06 08:26:58;;;;;;;6.45;1.10;;;;;;;1.97;69.12;102645.75;123479;1102;64942;-78
2021/03/06 08:29:47;;;;;;;2.77;1.07;;;;;;;2.08;68.69;102640.02;123570;1102;64860;-81
2021/03/06 08:32:24;;;;;;;1.40;0.97;;;;;;;2.15;69.02;102652.76;123504;1102;64940;-79
2021/03/06 08:34:52;;;;;;;0.57;0.40;;;;;;;2.13;70.61;102656.38;123427;1102;65371;-80
2021/03/06 08:37:22;;;;;;;8.15;1.30;;;;;;;2.14;71.14;102655.44;123605;1102;64994;-79
2021/03/06 08:39:59;;;;;;;4.00;1.17;;;;;;;2.04;71.44;102661.11;123581;1102;65206;-79
2021/03/06 08:42:31;;;;;;;1.15;0.70;;;;;;;2.10;71.63;102654.73;123694;1102;64978;-79
2021/03/06 08:45:07;;;;;;;2.90;1.00;;;;;;;2.13;71.32;102653.76;124842;1102;64853;-79
2021/03/06 08:47:41;;;;;;;2.50;0.93;;;;;;;2.16;71.84;102653.60;123762;1105;65017;-79
2021/03/06 08:50:11;;;;;;;4.05;1.20;;;;;;;2.28;71.95;102658.27;123556;1105;64862;-79
2021/03/06 08:52:39;;;;;;;3.60;0.90;;;;;;;2.36;71.79;102650.90;123504;1103;64966;-81
2021/03/06 08:55:08;;;;;;;3.90;1.00;;;;;;;2.42;71.28;102661.08;123644;1102;64934;-80
2021/03/06 08:57:39;;;;;;;6.33;0.87;;;;;;;2.47;70.22;102653.00;123671;1105;65205;-79
2021/03/06 09:00:16;;;;;;;2.57;0.70;;;;;;;2.47;71.22;102660.02;123616;1104;64981;-78
2021/03/06 09:02:43;;;;;;;2.70;1.07;;;;;;;2.41;71.59;102654.13;123756;1105;64965;-80
2021/03/06 09:05:14;;;;;;;1.60;0.60;;;;;;;2.28;71.98;102658.27;123809;1105;64851;-79
2021/03/06 09:07:55;;;;;;;3.00;0.70;;;;;;;2.21;72.09;102654.22;123740;1106;64937;-80
2021/03/06 09:10:28;;;;;;;2.43;0.63;;;;;;;2.32;71.61;102649.34;123643;1106;64908;-81
2021/03/06 09:13:07;;;;;;;0.83;0.40;;;;;;;2.34;71.81;102655.36;124083;1105;64930;-79
2021/03/06 09:15:38;;;;;;;4.80;1.00;;;;;;;2.39;70.24;102653.36;123879;1102;64904;-79
2021/03/06 09:18:08;;;;;;;4.47;0.90;;;;;;;2.44;69.90;102633.05;123975;1105;64915;-79
2021/03/06 09:20:44;;;;;;;4.20;1.10;;;;;;;2.61;69.65;102641.83;124295;1102;65045;-79
2021/03/06 09:23:21;;;;;;;1.23;0.73;;;;;;;2.78;69.03;102651.48;123714;1105;65379;-80
2021/03/06 09:25:47;;;;;;;3.03;0.63;;;;;;;2.86;67.44;102658.05;124276;1102;65551;-78
2021/03/06 09:29:12;;;;;;;3.63;1.10;;;;;;;2.94;68.43;102657.67;123769;1102;64975;-78
2021/03/06 09:31:38;;;;;;;3.07;0.80;;;;;;;3.02;67.38;102655.52;123870;1104;64934;-81
2021/03/06 09:34:05;;;;;;;2.63;0.53;;;;;;;3.19;67.26;102648.58;124657;1105;65052;-79
2021/03/06 09:36:32;;;;;;;6.55;1.12;;;;;;;3.37;66.83;102655.47;124622;1105;64918;-80
2021/03/06 09:39:02;;;;;;;4.43;1.50;;;;;;;3.48;66.59;102657.53;124116;1105;64947;-79
2021/03/06 09:41:38;;;;;;;3.77;1.10;;;;;;;3.55;65.91;102664.17;124066;1105;64968;-80
2021/03/06 09:44:09;;;;;;;2.93;1.00;;;;;;;3.51;64.54;102657.39;124124;1105;64860;-80
2021/03/06 09:46:37;;;;;;;3.07;0.70;;;;;;;3.40;66.46;102659.70;124370;1105;64921;-81
2021/03/06 09:49:07;;;;;;;3.17;0.90;;;;;;;3.38;65.41;102656.31;124002;1104;64939;-79
2021/03/06 09:51:52;;;;;;;3.40;0.80;;;;;;;3.26;66.33;102655.19;124037;1103;64907;-81
2021/03/06 09:54:21;;;;;;;4.10;1.17;;;;;;;3.16;66.92;102654.80;123502;1105;64947;-79
2021/03/06 09:56:53;;;;;;;4.40;1.07;;;;;;;3.14;67.37;102674.16;124149;1106;64920;-80
2021/03/06 09:59:22;;;;;;;6.97;1.13;;;;;;;3.19;67.53;102656.44;124718;1105;65001;-80
2021/03/06 10:01:49;;;;;;;7.87;0.90;;;;;;;3.15;68.25;102683.75;124794;1105;65074;-80
2021/03/06 10:04:18;;;;;;;8.67;1.27;;;;;;;2.95;69.67;102682.11;124316;1105;64950;-79
2021/03/06 10:06:47;;;;;;;1.50;0.80;;;;;;;2.77;71.33;102692.58;123826;1105;66599;-80
2021/03/06 10:09:16;;;;;;;2.93;1.10;;;;;;;2.60;72.51;102676.83;123931;1105;64857;-79
2021/03/06 10:11:45;;;;;;;2.33;0.80;;;;;;;2.44;74.86;102674.95;124157;1105;65084;-79
2021/03/06 10:14:17;;;;;;;3.50;1.07;;;;;;;2.36;75.56;102677.09;123813;1105;64920;-79
2021/03/06 10:16:49;;;;;;;2.57;1.20;;;;;;;2.38;75.06;102670.01;123598;1105;65717;-78
2021/03/06 10:19:17;;;;;;;5.60;1.27;;;;;;;2.41;73.98;102697.81;123955;1105;64914;-79
2021/03/06 10:22:06;;;;;;;1.60;0.73;;;;;;;2.44;73.24;102685.44;124413;1105;64963;-80
2021/03/06 10:24:50;;;;;;;3.53;1.20;;;;;;;2.49;73.02;102679.09;124460;1105;64950;-80
2021/03/06 10:27:17;;;;;;;3.43;1.23;;;;;;;2.58;73.97;102681.30;124490;1105;64860;-80
2021/03/06 10:29:43;;;;;;;1.67;0.80;;;;;;;2.67;73.77;102675.60;124013;1104;64944;-79
2021/03/06 10:32:10;;;;;;;1.97;1.20;;;;;;;2.79;72.28;102684.65;124496;1105;65004;-80
2021/03/06 10:34:58;;;;;;;2.87;1.03;;;;;;;2.86;72.83;102671.15;124717;1105;64867;-80
2021/03/06 10:37:25;;;;;;;1.90;1.03;;;;;;;2.94;71.57;102677.80;124039;1106;62377;-79
2021/03/06 10:39:54;;;;;;;1.70;1.10;;;;;;;3.14;71.87;102682.88;124255;1104;64937;-79
2021/03/06 10:42:22;;;;;;;3.37;1.17;;;;;;;3.26;71.78;102690.13;124161;1103;64936;-80
2021/03/06 10:44:48;;;;;;;1.30;0.70;;;;;;;3.47;70.82;102672.44;123855;1105;64956;-80
2021/03/06 10:47:15;;;;;;;3.43;1.20;;;;;;;3.65;69.56;102678.48;124639;1105;65016;-79
2021/03/06 10:49:45;;;;;;;3.20;1.13;;;;;;;3.74;69.44;102676.30;123653;1105;65001;-79
2021/03/06 10:52:29;;;;;;;3.20;1.10;;;;;;;3.78;67.72;102660.33;123649;1105;64934;-78
2021/03/06 10:54:57;;;;;;;;;;;;;;;3.95;66.71;102662.02;123638;1105;64872;-80
2021/03/06 10:57:25;;;;;;;4.37;1.47;;;;;;;4.17;67.96;102671.38;123618;1105;66206;-80
2021/03/06 10:59:53;;;;;;;3.17;1.40;;;;;;;4.20;67.71;102661.53;123426;1106;64949;-79
2021/03/06 11:02:24;;;;;;;6.77;2.60;;;;;;;4.36;66.29;102661.54;123490;1105;64915;-80
2021/03/06 11:04:53;;;;;;;2.07;1.07;;;;;;;4.58;66.17;102653.27;123611;1105;64925;-81
2021/03/06 11:07:29;;;;;;;3.30;1.43;;;;;;;4.64;65.16;102649.46;123487;1105;65257;-82
2021/03/06 11:09:58;;;;;;;1.80;1.10;;;;;;;4.66;65.10;102648.43;123619;1105;64786;-79
2021/03/06 11:12:31;;;;;;;2.87;1.17;;;;;;;4.83;65.20;102655.34;123828;1105;64933;-80
2021/03/06 11:15:07;;;;;;;3.30;1.00;;;;;;;4.79;65.00;102643.31;123771;1105;64958;-80
2021/03/06 11:17:33;;;;;;;5.10;1.43;;;;;;;4.66;65.11;102640.55;123829;1105;64866;-80
2021/03/06 11:20:00;;;;;;;2.63;1.10;;;;;;;4.64;65.09;102649.46;123546;1105;64889;-79
2021/03/06 11:22:27;;;;;;;2.80;1.00;;;;;;;4.75;66.13;102652.30;123420;1106;65553;-79
2021/03/06 11:24:54;;;;;;;2.20;0.73;;;;;;;4.87;66.74;102656.86;123528;1105;64985;-79
2021/03/06 11:27:20;;;;;;;2.80;1.15;;;;;;;4.96;66.59;102665.99;123457;1105;65059;-80
2021/03/06 11:29:46;;;;;;;2.50;1.00;;;;;;;5.05;67.78;102664.61;123602;1105;65048;-79
2021/03/06 11:32:13;;;;;;;4.23;1.40;;;;;;;5.06;68.02;102655.80;123615;1105;64944;-80
2021/03/06 11:34:39;;;;;;;3.53;1.10;;;;;;;5.03;67.83;102661.22;123613;1105;64934;-78